sensor_id;sensor_type;location;lat;lon;timestamp;pressure;altitude;pressure_sealevel;temperature;humidity
6028;BME280;3042;43.194;27.646;2023-01-31T00:01:08;101293.22;;;6.39;100.00
6028;BME280;3042;43.194;27.646;2023-01-31T00:03:36;101092.69;;;4.99;100.00
6028;BME280;3042;43.194;27.646;2023-01-31T00:06:11;101077.41;;;5.12;100.00
6028;BME280;3042;43.194;27.646;2023-01-31T00:08:40;101290.91;;;6.19;100.00
6028;BME280;3042;43.194;27.646;2023-01-31T00:11:08;101104.91;;;4.79;100.00
6028;BME280;3042;43.194;27.646;2023-01-31T00:13:35;101301.75;;;5.91;100.00
6028;BME280;3042;43.194;27.646;2023-01-31T00:16:02;101295.28;;;5.84;100.00
6028;BME280;3042;43.194;27.646;2023-01-31T00:18:30;101298.97;;;5.76;100.00
6028;BME280;3042;43.194;27.646;2023-01-31T00:20:57;101294.81;;;5.66;100.00
6028;BME280;3042;43.194;27.646;2023-01-31T00:23:24;101302.41;;;5.53;100.00
6028;BME280;3042;43.194;27.646;2023-01-31T00:25:52;101286.59;;;5.70;100.00
6028;BME280;3042;43.194;27.646;2023-01-31T00:28:19;101295.47;;;5.40;100.00
6028;BME280;3042;43.194;27.646;2023-01-31T00:30:46;101285.91;;;5.38;100.00
6028;BME280;3042;43.194;27.646;2023-01-31T00:33:13;101278.66;;;5.32;100.00
6028;BME280;3042;43.194;27.646;2023-01-31T00:35:40;101272.75;;;5.33;100.00
6028;BME280;3042;43.194;27.646;2023-01-31T00:38:07;101145.50;;;4.63;100.00
6028;BME280;3042;43.194;27.646;2023-01-31T00:40:34;101117.03;;;4.58;100.00
6028;BME280;3042;43.194;27.646;2023-01-31T00:43:02;101262.75;;;5.48;100.00
6028;BME280;3042;43.194;27.646;2023-01-31T00:45:29;101272.19;;;5.25;100.00
6028;BME280;3042;43.194;27.646;2023-01-31T00:47:56;101269.63;;;5.14;100.00
6028;BME280;3042;43.194;27.646;2023-01-31T00:50:23;101262.28;;;5.18;100.00
6028;BME280;3042;43.194;27.646;2023-01-31T00:52:53;101246.13;;;5.19;100.00
6028;BME280;3042;43.194;27.646;2023-01-31T00:55:20;101246.03;;;5.29;100.00
6028;BME280;3042;43.194;27.646;2023-01-31T00:57:47;101232.34;;;5.41;100.00
6028;BME280;3042;43.194;27.646;2023-01-31T01:00:16;101191.22;;;5.39;100.00
6028;BME280;3042;43.194;27.646;2023-01-31T01:02:43;101228.66;;;5.49;100.00
6028;BME280;3042;43.194;27.646;2023-01-31T01:05:10;101225.19;;;5.60;100.00
6028;BME280;3042;43.194;27.646;2023-01-31T01:07:37;101229.84;;;5.66;100.00
6028;BME280;3042;43.194;27.646;2023-01-31T01:10:05;101229.19;;;5.68;100.00
6028;BME280;3042;43.194;27.646;2023-01-31T01:12:33;101225.28;;;5.50;100.00
6028;BME280;3042;43.194;27.646;2023-01-31T01:15:00;101228.19;;;5.43;100.00
6028;BME280;3042;43.194;27.646;2023-01-31T01:17:28;101220.06;;;5.60;100.00
6028;BME280;3042;43.194;27.646;2023-01-31T01:19:55;101164.41;;;5.11;100.00
6028;BME280;3042;43.194;27.646;2023-01-31T01:22:22;101221.50;;;5.33;100.00
6028;BME280;3042;43.194;27.646;2023-01-31T01:24:49;101232.88;;;5.13;100.00
6028;BME280;3042;43.194;27.646;2023-01-31T01:27:16;101236.84;;;4.98;100.00
6028;BME280;3042;43.194;27.646;2023-01-31T01:29:43;101236.50;;;4.93;100.00
6028;BME280;3042;43.194;27.646;2023-01-31T01:32:10;101230.72;;;4.96;100.00
6028;BME280;3042;43.194;27.646;2023-01-31T01:34:38;101217.72;;;5.16;100.00
6028;BME280;3042;43.194;27.646;2023-01-31T01:37:06;101220.63;;;5.21;100.00
6028;BME280;3042;43.194;27.646;2023-01-31T01:39:36;101227.13;;;4.94;100.00
6028;BME280;3042;43.194;27.646;2023-01-31T01:42:03;101221.94;;;4.92;100.00
6028;BME280;3042;43.194;27.646;2023-01-31T01:44:46;101205.59;;;5.14;100.00
6028;BME280;3042;43.194;27.646;2023-01-31T01:47:25;101219.13;;;5.01;100.00
6028;BME280;3042;43.194;27.646;2023-01-31T01:50:00;101221.47;;;4.98;100.00
6028;BME280;3042;43.194;27.646;2023-01-31T01:52:29;101214.78;;;4.88;100.00
6028;BME280;3042;43.194;27.646;2023-01-31T01:55:02;101211.66;;;4.80;100.00
6028;BME280;3042;43.194;27.646;2023-01-31T01:57:35;101206.44;;;4.91;100.00
6028;BME280;3042;43.194;27.646;2023-01-31T02:00:09;101208.78;;;4.88;100.00
6028;BME280;3042;43.194;27.646;2023-01-31T02:02:39;101220.03;;;4.56;100.00
6028;BME280;3042;43.194;27.646;2023-01-31T02:05:08;101210.97;;;4.71;100.00
6028;BME280;3042;43.194;27.646;2023-01-31T02:07:37;101218.66;;;4.49;100.00
6028;BME280;3042;43.194;27.646;2023-01-31T02:10:08;100983.66;;;3.17;100.00
6028;BME280;3042;43.194;27.646;2023-01-31T02:12:38;101215.56;;;4.53;100.00
6028;BME280;3042;43.194;27.646;2023-01-31T02:15:06;101222.25;;;4.51;100.00
6028;BME280;3042;43.194;27.646;2023-01-31T02:17:34;101225.53;;;4.38;100.00
6028;BME280;3042;43.194;27.646;2023-01-31T02:20:15;101224.09;;;4.64;100.00
6028;BME280;3042;43.194;27.646;2023-01-31T02:22:57;101106.63;;;3.99;100.00
6028;BME280;3042;43.194;27.646;2023-01-31T02:25:49;101202.78;;;4.87;100.00
6028;BME280;3042;43.194;27.646;2023-01-31T02:28:53;101212.41;;;4.68;100.00
6028;BME280;3042;43.194;27.646;2023-01-31T02:34:37;101201.84;;;4.75;100.00
6028;BME280;3042;43.194;27.646;2023-01-31T02:37:17;101203.50;;;4.74;100.00
6028;BME280;3042;43.194;27.646;2023-01-31T02:39:53;101204.53;;;4.76;100.00
6028;BME280;3042;43.194;27.646;2023-01-31T02:42:28;101203.97;;;4.80;100.00
6028;BME280;3042;43.194;27.646;2023-01-31T02:45:07;101215.56;;;4.87;100.00
6028;BME280;3042;43.194;27.646;2023-01-31T02:47:43;101213.66;;;4.84;100.00
6028;BME280;3042;43.194;27.646;2023-01-31T02:50:21;101218.56;;;4.81;100.00
6028;BME280;3042;43.194;27.646;2023-01-31T02:52:54;101216.63;;;4.67;100.00
6028;BME280;3042;43.194;27.646;2023-01-31T02:55:27;101206.06;;;4.74;100.00
6028;BME280;3042;43.194;27.646;2023-01-31T02:58:15;101010.25;;;3.53;100.00
6028;BME280;3042;43.194;27.646;2023-01-31T03:00:45;101138.66;;;4.40;100.00
6028;BME280;3042;43.194;27.646;2023-01-31T03:03:18;101189.19;;;4.88;100.00
6028;BME280;3042;43.194;27.646;2023-01-31T03:06:41;101078.75;;;4.60;100.00
6028;BME280;3042;43.194;27.646;2023-01-31T03:09:04;101137.97;;;4.76;100.00
6028;BME280;3042;43.194;27.646;2023-01-31T03:11:39;101198.97;;;4.94;100.00
6028;BME280;3042;43.194;27.646;2023-01-31T03:14:16;101169.59;;;4.89;100.00
6028;BME280;3042;43.194;27.646;2023-01-31T03:16:52;101168.03;;;5.02;100.00
6028;BME280;3042;43.194;27.646;2023-01-31T03:19:45;101153.56;;;5.03;100.00
6028;BME280;3042;43.194;27.646;2023-01-31T03:22:18;101176.94;;;5.19;100.00
6028;BME280;3042;43.194;27.646;2023-01-31T03:24:49;101176.53;;;5.13;100.00
6028;BME280;3042;43.194;27.646;2023-01-31T03:27:19;101181.31;;;5.20;100.00
6028;BME280;3042;43.194;27.646;2023-01-31T03:29:47;101173.72;;;5.10;100.00
6028;BME280;3042;43.194;27.646;2023-01-31T03:32:19;101170.28;;;5.33;100.00
6028;BME280;3042;43.194;27.646;2023-01-31T03:34:49;101169.41;;;5.21;100.00
6028;BME280;3042;43.194;27.646;2023-01-31T03:37:22;101166.34;;;5.50;100.00
6028;BME280;3042;43.194;27.646;2023-01-31T03:39:55;101171.16;;;5.45;100.00
6028;BME280;3042;43.194;27.646;2023-01-31T03:42:29;101171.25;;;5.47;100.00
6028;BME280;3042;43.194;27.646;2023-01-31T03:45:03;101170.56;;;5.61;100.00
6028;BME280;3042;43.194;27.646;2023-01-31T03:47:35;101160.00;;;5.57;100.00
6028;BME280;3042;43.194;27.646;2023-01-31T03:50:06;101152.88;;;5.64;100.00
6028;BME280;3042;43.194;27.646;2023-01-31T03:52:42;101158.41;;;5.70;100.00
6028;BME280;3042;43.194;27.646;2023-01-31T03:55:14;101173.09;;;5.85;100.00
6028;BME280;3042;43.194;27.646;2023-01-31T03:57:44;101155.38;;;5.88;100.00
6028;BME280;3042;43.194;27.646;2023-01-31T04:00:13;101154.38;;;5.86;100.00
6028;BME280;3042;43.194;27.646;2023-01-31T04:02:42;101167.31;;;5.76;100.00
6028;BME280;3042;43.194;27.646;2023-01-31T04:05:11;101154.56;;;6.01;100.00
6028;BME280;3042;43.194;27.646;2023-01-31T04:07:41;101164.13;;;6.03;100.00
6028;BME280;3042;43.194;27.646;2023-01-31T04:10:11;101165.34;;;6.08;100.00
6028;BME280;3042;43.194;27.646;2023-01-31T04:12:39;101177.75;;;6.02;100.00
6028;BME280;3042;43.194;27.646;2023-01-31T04:15:08;101169.91;;;6.12;100.00
6028;BME280;3042;43.194;27.646;2023-01-31T04:17:35;101179.78;;;6.06;100.00
6028;BME280;3042;43.194;27.646;2023-01-31T04:20:03;100939.44;;;4.68;100.00
6028;BME280;3042;43.194;27.646;2023-01-31T04:22:30;101190.25;;;5.86;100.00
6028;BME280;3042;43.194;27.646;2023-01-31T04:24:59;101188.22;;;6.05;100.00
6028;BME280;3042;43.194;27.646;2023-01-31T04:27:26;101185.03;;;5.96;100.00
6028;BME280;3042;43.194;27.646;2023-01-31T04:29:53;101188.03;;;6.02;100.00
6028;BME280;3042;43.194;27.646;2023-01-31T04:32:20;101192.78;;;6.09;100.00
6028;BME280;3042;43.194;27.646;2023-01-31T04:34:47;101187.50;;;6.20;100.00
6028;BME280;3042;43.194;27.646;2023-01-31T04:37:14;101200.13;;;6.17;100.00
6028;BME280;3042;43.194;27.646;2023-01-31T04:39:41;101201.84;;;6.04;100.00
6028;BME280;3042;43.194;27.646;2023-01-31T04:42:10;101199.69;;;6.10;100.00
6028;BME280;3042;43.194;27.646;2023-01-31T04:44:37;101207.53;;;6.00;100.00
6028;BME280;3042;43.194;27.646;2023-01-31T04:47:03;101214.78;;;5.94;100.00
6028;BME280;3042;43.194;27.646;2023-01-31T04:49:31;101214.00;;;6.07;100.00
6028;BME280;3042;43.194;27.646;2023-01-31T04:51:58;101224.50;;;5.98;100.00
6028;BME280;3042;43.194;27.646;2023-01-31T04:54:25;101221.72;;;5.95;100.00
6028;BME280;3042;43.194;27.646;2023-01-31T04:56:52;101219.22;;;6.08;100.00
6028;BME280;3042;43.194;27.646;2023-01-31T04:59:21;101203.72;;;6.32;100.00
6028;BME280;3042;43.194;27.646;2023-01-31T05:01:48;101216.59;;;6.20;100.00
6028;BME280;3042;43.194;27.646;2023-01-31T05:04:15;101200.59;;;6.36;100.00
6028;BME280;3042;43.194;27.646;2023-01-31T05:06:42;101206.94;;;6.41;100.00
6028;BME280;3042;43.194;27.646;2023-01-31T05:09:09;101166.78;;;6.17;100.00
6028;BME280;3042;43.194;27.646;2023-01-31T05:11:37;101196.22;;;6.47;100.00
6028;BME280;3042;43.194;27.646;2023-01-31T05:14:04;101198.72;;;6.59;100.00
6028;BME280;3042;43.194;27.646;2023-01-31T05:16:33;101194.03;;;6.78;100.00
6028;BME280;3042;43.194;27.646;2023-01-31T05:19:01;101200.22;;;6.68;100.00
6028;BME280;3042;43.194;27.646;2023-01-31T05:21:28;101204.88;;;6.74;100.00
6028;BME280;3042;43.194;27.646;2023-01-31T05:23:55;101218.94;;;6.79;100.00
6028;BME280;3042;43.194;27.646;2023-01-31T05:26:22;101215.28;;;6.89;100.00
6028;BME280;3042;43.194;27.646;2023-01-31T05:28:49;101221.94;;;6.98;100.00
6028;BME280;3042;43.194;27.646;2023-01-31T05:31:15;101224.81;;;7.03;100.00
6028;BME280;3042;43.194;27.646;2023-01-31T05:33:44;100746.63;;;4.54;100.00
6028;BME280;3042;43.194;27.646;2023-01-31T05:36:11;101151.47;;;6.82;100.00
6028;BME280;3042;43.194;27.646;2023-01-31T05:38:39;101217.69;;;7.26;100.00
6028;BME280;3042;43.194;27.646;2023-01-31T05:41:06;101224.34;;;7.35;100.00
6028;BME280;3042;43.194;27.646;2023-01-31T05:43:33;101232.84;;;7.34;100.00
6028;BME280;3042;43.194;27.646;2023-01-31T05:46:00;101232.06;;;7.35;100.00
6028;BME280;3042;43.194;27.646;2023-01-31T05:48:27;101229.88;;;7.42;100.00
6028;BME280;3042;43.194;27.646;2023-01-31T05:50:55;101229.28;;;7.32;100.00
6028;BME280;3042;43.194;27.646;2023-01-31T05:53:22;101235.47;;;7.09;100.00
6028;BME280;3042;43.194;27.646;2023-01-31T05:55:49;101242.91;;;7.05;100.00
6028;BME280;3042;43.194;27.646;2023-01-31T05:58:17;101227.72;;;7.21;100.00
6028;BME280;3042;43.194;27.646;2023-01-31T06:00:44;101237.97;;;7.34;100.00
6028;BME280;3042;43.194;27.646;2023-01-31T06:03:10;101204.19;;;7.28;100.00
6028;BME280;3042;43.194;27.646;2023-01-31T06:05:37;101236.31;;;7.48;100.00
6028;BME280;3042;43.194;27.646;2023-01-31T06:08:06;101222.53;;;7.74;100.00
6028;BME280;3042;43.194;27.646;2023-01-31T06:10:34;101024.44;;;6.50;100.00
6028;BME280;3042;43.194;27.646;2023-01-31T06:13:01;101159.28;;;7.36;100.00
6028;BME280;3042;43.194;27.646;2023-01-31T06:15:28;101231.41;;;7.93;100.00
6028;BME280;3042;43.194;27.646;2023-01-31T06:17:55;101201.75;;;7.85;100.00
6028;BME280;3042;43.194;27.646;2023-01-31T06:20:22;101238.53;;;8.10;100.00
6028;BME280;3042;43.194;27.646;2023-01-31T06:22:56;100901.44;;;6.53;100.00
6028;BME280;3042;43.194;27.646;2023-01-31T06:25:32;101242.38;;;8.45;100.00
6028;BME280;3042;43.194;27.646;2023-01-31T06:27:59;101239.31;;;8.37;100.00
6028;BME280;3042;43.194;27.646;2023-01-31T06:30:26;101250.91;;;8.31;100.00
6028;BME280;3042;43.194;27.646;2023-01-31T06:32:53;101252.72;;;8.32;100.00
6028;BME280;3042;43.194;27.646;2023-01-31T06:35:28;101199.06;;;8.24;100.00
6028;BME280;3042;43.194;27.646;2023-01-31T06:37:55;101259.06;;;8.23;100.00
6028;BME280;3042;43.194;27.646;2023-01-31T06:40:22;101069.56;;;7.26;100.00
6028;BME280;3042;43.194;27.646;2023-01-31T06:42:50;101255.66;;;8.51;100.00
6028;BME280;3042;43.194;27.646;2023-01-31T06:45:17;101253.66;;;8.47;100.00
6028;BME280;3042;43.194;27.646;2023-01-31T06:47:44;101256.03;;;8.57;100.00
6028;BME280;3042;43.194;27.646;2023-01-31T06:50:12;100862.09;;;6.26;100.00
6028;BME280;3042;43.194;27.646;2023-01-31T06:52:39;101258.78;;;8.60;100.00
6028;BME280;3042;43.194;27.646;2023-01-31T06:55:07;101242.72;;;8.79;100.00
6028;BME280;3042;43.194;27.646;2023-01-31T06:57:34;101248.00;;;8.81;100.00
6028;BME280;3042;43.194;27.646;2023-01-31T07:00:04;101118.66;;;8.29;100.00
6028;BME280;3042;43.194;27.646;2023-01-31T07:02:31;101265.31;;;8.98;100.00
6028;BME280;3042;43.194;27.646;2023-01-31T07:04:58;101264.28;;;9.09;100.00
6028;BME280;3042;43.194;27.646;2023-01-31T07:07:25;101251.13;;;9.20;100.00
6028;BME280;3042;43.194;27.646;2023-01-31T07:09:51;101263.50;;;9.25;100.00
6028;BME280;3042;43.194;27.646;2023-01-31T07:12:18;101260.03;;;9.25;100.00
6028;BME280;3042;43.194;27.646;2023-01-31T07:14:45;101062.00;;;8.29;100.00
6028;BME280;3042;43.194;27.646;2023-01-31T07:17:14;101270.41;;;9.56;100.00
6028;BME280;3042;43.194;27.646;2023-01-31T07:19:41;101252.72;;;9.33;100.00
6028;BME280;3042;43.194;27.646;2023-01-31T07:22:08;101276.28;;;9.54;100.00
6028;BME280;3042;43.194;27.646;2023-01-31T07:24:35;101283.13;;;9.23;100.00
6028;BME280;3042;43.194;27.646;2023-01-31T07:27:02;100934.38;;;7.43;100.00
6028;BME280;3042;43.194;27.646;2023-01-31T07:29:29;101014.09;;;8.01;100.00
6028;BME280;3042;43.194;27.646;2023-01-31T07:31:56;101259.97;;;9.55;100.00
6028;BME280;3042;43.194;27.646;2023-01-31T07:34:24;101251.63;;;9.59;100.00
6028;BME280;3042;43.194;27.646;2023-01-31T07:36:51;101261.59;;;9.67;100.00
6028;BME280;3042;43.194;27.646;2023-01-31T07:39:18;101251.94;;;9.80;100.00
6028;BME280;3042;43.194;27.646;2023-01-31T07:41:45;101261.38;;;9.79;100.00
6028;BME280;3042;43.194;27.646;2023-01-31T07:44:15;101254.50;;;10.11;100.00
6028;BME280;3042;43.194;27.646;2023-01-31T07:46:42;101263.13;;;9.95;100.00
6028;BME280;3042;43.194;27.646;2023-01-31T07:49:09;101160.81;;;9.49;100.00
6028;BME280;3042;43.194;27.646;2023-01-31T07:51:38;101263.19;;;10.28;100.00
6028;BME280;3042;43.194;27.646;2023-01-31T07:54:06;101252.69;;;9.93;100.00
6028;BME280;3042;43.194;27.646;2023-01-31T07:56:33;101089.22;;;8.83;100.00
6028;BME280;3042;43.194;27.646;2023-01-31T07:59:00;101274.38;;;10.12;100.00
6028;BME280;3042;43.194;27.646;2023-01-31T08:01:27;100889.72;;;7.86;100.00
6028;BME280;3042;43.194;27.646;2023-01-31T08:04:12;101263.13;;;10.43;100.00
6028;BME280;3042;43.194;27.646;2023-01-31T08:06:43;101194.81;;;10.21;100.00
6028;BME280;3042;43.194;27.646;2023-01-31T08:09:11;101271.38;;;10.35;100.00
6028;BME280;3042;43.194;27.646;2023-01-31T08:11:41;101268.41;;;10.44;100.00
6028;BME280;3042;43.194;27.646;2023-01-31T08:14:08;101264.16;;;10.46;100.00
6028;BME280;3042;43.194;27.646;2023-01-31T08:16:35;101270.00;;;10.42;100.00
6028;BME280;3042;43.194;27.646;2023-01-31T08:19:02;101258.13;;;10.46;100.00
6028;BME280;3042;43.194;27.646;2023-01-31T08:21:29;101260.88;;;10.65;100.00
6028;BME280;3042;43.194;27.646;2023-01-31T08:23:57;101255.44;;;10.93;100.00
6028;BME280;3042;43.194;27.646;2023-01-31T08:26:24;101098.31;;;9.86;100.00
6028;BME280;3042;43.194;27.646;2023-01-31T08:28:51;101268.75;;;11.01;100.00
6028;BME280;3042;43.194;27.646;2023-01-31T08:31:21;101075.22;;;10.22;100.00
6028;BME280;3042;43.194;27.646;2023-01-31T08:33:49;100961.88;;;9.11;100.00
6028;BME280;3042;43.194;27.646;2023-01-31T08:36:19;101263.22;;;11.11;100.00
6028;BME280;3042;43.194;27.646;2023-01-31T08:38:46;101280.56;;;10.96;100.00
6028;BME280;3042;43.194;27.646;2023-01-31T08:41:16;101294.94;;;10.91;100.00
6028;BME280;3042;43.194;27.646;2023-01-31T08:43:43;101293.66;;;10.66;100.00
6028;BME280;3042;43.194;27.646;2023-01-31T08:46:11;101286.31;;;10.74;100.00
6028;BME280;3042;43.194;27.646;2023-01-31T08:48:38;101206.19;;;10.25;100.00
6028;BME280;3042;43.194;27.646;2023-01-31T08:51:08;101225.75;;;10.52;100.00
6028;BME280;3042;43.194;27.646;2023-01-31T08:53:36;101282.34;;;10.81;100.00
6028;BME280;3042;43.194;27.646;2023-01-31T08:56:05;101284.78;;;10.61;100.00
6028;BME280;3042;43.194;27.646;2023-01-31T08:58:36;101201.84;;;10.24;100.00
6028;BME280;3042;43.194;27.646;2023-01-31T09:01:05;101290.69;;;10.59;100.00
6028;BME280;3042;43.194;27.646;2023-01-31T09:03:33;101301.56;;;10.53;100.00
6028;BME280;3042;43.194;27.646;2023-01-31T09:06:01;101302.38;;;10.68;100.00
6028;BME280;3042;43.194;27.646;2023-01-31T09:08:29;101152.03;;;9.77;100.00
6028;BME280;3042;43.194;27.646;2023-01-31T09:10:57;101319.72;;;10.38;100.00
6028;BME280;3042;43.194;27.646;2023-01-31T09:13:25;101299.47;;;10.46;100.00
6028;BME280;3042;43.194;27.646;2023-01-31T09:16:02;101287.75;;;11.02;100.00
6028;BME280;3042;43.194;27.646;2023-01-31T09:18:29;101022.66;;;9.22;100.00
6028;BME280;3042;43.194;27.646;2023-01-31T09:21:02;101286.84;;;11.01;100.00
6028;BME280;3042;43.194;27.646;2023-01-31T09:23:29;101289.75;;;10.91;100.00
6028;BME280;3042;43.194;27.646;2023-01-31T09:25:56;100885.81;;;8.53;100.00
6028;BME280;3042;43.194;27.646;2023-01-31T09:28:24;101286.53;;;10.95;100.00
6028;BME280;3042;43.194;27.646;2023-01-31T09:30:51;100958.63;;;9.13;100.00
6028;BME280;3042;43.194;27.646;2023-01-31T09:33:20;101287.34;;;11.10;100.00
6028;BME280;3042;43.194;27.646;2023-01-31T09:35:54;101233.25;;;10.64;100.00
6028;BME280;3042;43.194;27.646;2023-01-31T09:38:22;101284.69;;;10.92;100.00
6028;BME280;3042;43.194;27.646;2023-01-31T09:40:50;100989.22;;;9.56;100.00
6028;BME280;3042;43.194;27.646;2023-01-31T09:43:18;101240.66;;;11.25;100.00
6028;BME280;3042;43.194;27.646;2023-01-31T09:45:47;101266.94;;;11.16;100.00
6028;BME280;3042;43.194;27.646;2023-01-31T09:48:19;101267.84;;;11.35;100.00
6028;BME280;3042;43.194;27.646;2023-01-31T09:50:51;101266.47;;;11.07;100.00
6028;BME280;3042;43.194;27.646;2023-01-31T09:53:22;101071.53;;;9.68;100.00
6028;BME280;3042;43.194;27.646;2023-01-31T09:55:56;101292.03;;;11.01;100.00
6028;BME280;3042;43.194;27.646;2023-01-31T09:58:32;101283.44;;;11.02;100.00
6028;BME280;3042;43.194;27.646;2023-01-31T10:01:08;101273.03;;;11.17;100.00
6028;BME280;3042;43.194;27.646;2023-01-31T10:03:47;101259.31;;;11.36;100.00
6028;BME280;3042;43.194;27.646;2023-01-31T10:06:22;101222.97;;;11.16;100.00
6028;BME280;3042;43.194;27.646;2023-01-31T10:08:56;101246.31;;;11.52;100.00
6028;BME280;3042;43.194;27.646;2023-01-31T10:11:33;101253.53;;;11.59;100.00
6028;BME280;3042;43.194;27.646;2023-01-31T10:14:05;101247.50;;;11.59;100.00
6028;BME280;3042;43.194;27.646;2023-01-31T10:16:40;101238.47;;;11.69;100.00
6028;BME280;3042;43.194;27.646;2023-01-31T10:19:14;100925.31;;;9.85;100.00
6028;BME280;3042;43.194;27.646;2023-01-31T10:21:46;101217.50;;;11.10;100.00
6028;BME280;3042;43.194;27.646;2023-01-31T10:24:19;101236.47;;;11.45;100.00
6028;BME280;3042;43.194;27.646;2023-01-31T10:26:50;101165.91;;;11.49;100.00
6028;BME280;3042;43.194;27.646;2023-01-31T10:29:23;101045.16;;;10.75;100.00
6028;BME280;3042;43.194;27.646;2023-01-31T10:31:56;101145.59;;;10.85;100.00
6028;BME280;3042;43.194;27.646;2023-01-31T10:34:31;100924.44;;;9.84;100.00
6028;BME280;3042;43.194;27.646;2023-01-31T10:37:09;101222.19;;;11.89;100.00
6028;BME280;3042;43.194;27.646;2023-01-31T10:39:42;101217.00;;;11.89;100.00
6028;BME280;3042;43.194;27.646;2023-01-31T10:42:19;101206.94;;;12.15;100.00
6028;BME280;3042;43.194;27.646;2023-01-31T10:44:52;101200.00;;;12.33;100.00
6028;BME280;3042;43.194;27.646;2023-01-31T10:47:23;101189.91;;;12.59;100.00
6028;BME280;3042;43.194;27.646;2023-01-31T10:49:50;101203.00;;;12.42;100.00
6028;BME280;3042;43.194;27.646;2023-01-31T10:52:32;101201.94;;;12.37;100.00
6028;BME280;3042;43.194;27.646;2023-01-31T10:55:15;101226.03;;;11.97;100.00
6028;BME280;3042;43.194;27.646;2023-01-31T10:57:49;101240.34;;;11.73;100.00
6028;BME280;3042;43.194;27.646;2023-01-31T11:00:21;101241.41;;;11.58;100.00
6028;BME280;3042;43.194;27.646;2023-01-31T11:02:48;101242.59;;;11.65;100.00
6028;BME280;3042;43.194;27.646;2023-01-31T11:05:18;101225.50;;;11.69;100.00
6028;BME280;3042;43.194;27.646;2023-01-31T11:07:48;101225.56;;;12.06;100.00
6028;BME280;3042;43.194;27.646;2023-01-31T11:10:25;101202.72;;;12.17;100.00
6028;BME280;3042;43.194;27.646;2023-01-31T11:12:54;101202.56;;;12.32;100.00
6028;BME280;3042;43.194;27.646;2023-01-31T11:15:24;101190.31;;;12.49;100.00
6028;BME280;3042;43.194;27.646;2023-01-31T11:17:55;101174.84;;;12.91;100.00
6028;BME280;3042;43.194;27.646;2023-01-31T11:20:26;101130.94;;;12.74;99.71
6028;BME280;3042;43.194;27.646;2023-01-31T11:22:56;101163.06;;;13.20;98.59
6028;BME280;3042;43.194;27.646;2023-01-31T11:25:25;101169.84;;;12.95;96.84
6028;BME280;3042;43.194;27.646;2023-01-31T11:27:57;101180.22;;;12.95;96.61
6028;BME280;3042;43.194;27.646;2023-01-31T11:30:34;100859.41;;;11.02;95.21
6028;BME280;3042;43.194;27.646;2023-01-31T11:33:01;101181.28;;;12.79;94.29
6028;BME280;3042;43.194;27.646;2023-01-31T11:35:30;101172.56;;;13.19;94.91
6028;BME280;3042;43.194;27.646;2023-01-31T11:38:00;101164.06;;;13.23;94.23
6028;BME280;3042;43.194;27.646;2023-01-31T11:40:31;100974.97;;;12.21;93.50
6028;BME280;3042;43.194;27.646;2023-01-31T11:42:59;101184.34;;;13.11;93.09
6028;BME280;3042;43.194;27.646;2023-01-31T11:45:29;100749.06;;;11.01;93.02
6028;BME280;3042;43.194;27.646;2023-01-31T11:47:59;101174.50;;;13.46;92.71
6028;BME280;3042;43.194;27.646;2023-01-31T11:50:34;101166.97;;;13.52;92.03
6028;BME280;3042;43.194;27.646;2023-01-31T11:53:14;101186.44;;;13.63;92.61
6028;BME280;3042;43.194;27.646;2023-01-31T11:55:43;101167.44;;;13.64;92.85
6028;BME280;3042;43.194;27.646;2023-01-31T11:58:17;101011.41;;;12.68;91.75
6028;BME280;3042;43.194;27.646;2023-01-31T12:00:52;100885.66;;;11.50;90.58
6028;BME280;3042;43.194;27.646;2023-01-31T12:03:20;101195.81;;;12.76;89.88
6028;BME280;3042;43.194;27.646;2023-01-31T12:05:50;101194.03;;;12.75;91.72
6028;BME280;3042;43.194;27.646;2023-01-31T12:08:33;101072.50;;;12.61;91.70
6028;BME280;3042;43.194;27.646;2023-01-31T12:11:03;101189.66;;;13.14;92.36
6028;BME280;3042;43.194;27.646;2023-01-31T12:13:44;101177.28;;;13.28;91.39
6028;BME280;3042;43.194;27.646;2023-01-31T12:16:12;101186.03;;;13.32;91.98
6028;BME280;3042;43.194;27.646;2023-01-31T12:18:49;101180.06;;;13.55;92.29
6028;BME280;3042;43.194;27.646;2023-01-31T12:21:33;101179.84;;;13.49;91.76
6028;BME280;3042;43.194;27.646;2023-01-31T12:24:23;101139.66;;;12.76;91.54
6028;BME280;3042;43.194;27.646;2023-01-31T12:26:55;101195.47;;;12.68;93.04
6028;BME280;3042;43.194;27.646;2023-01-31T12:29:40;101222.16;;;12.65;93.99
6028;BME280;3042;43.194;27.646;2023-01-31T12:32:29;101227.81;;;12.76;94.53
6028;BME280;3042;43.194;27.646;2023-01-31T12:35:10;101212.50;;;13.02;95.08
6028;BME280;3042;43.194;27.646;2023-01-31T12:37:48;101221.25;;;12.84;94.23
6028;BME280;3042;43.194;27.646;2023-01-31T12:40:36;101231.25;;;12.56;93.82
6028;BME280;3042;43.194;27.646;2023-01-31T12:43:16;101251.72;;;12.12;93.77
6028;BME280;3042;43.194;27.646;2023-01-31T12:45:55;101257.41;;;12.03;95.23
6028;BME280;3042;43.194;27.646;2023-01-31T12:51:39;101251.09;;;11.98;97.87
6028;BME280;3042;43.194;27.646;2023-01-31T12:54:18;101065.44;;;10.67;98.28
6028;BME280;3042;43.194;27.646;2023-01-31T12:57:00;101267.50;;;11.81;99.18
6028;BME280;3042;43.194;27.646;2023-01-31T12:59:38;101273.66;;;11.83;99.70
6028;BME280;3042;43.194;27.646;2023-01-31T13:02:20;101239.34;;;11.69;100.00
6028;BME280;3042;43.194;27.646;2023-01-31T13:04:56;101276.16;;;11.81;100.00
6028;BME280;3042;43.194;27.646;2023-01-31T13:07:29;101186.41;;;11.27;100.00
6028;BME280;3042;43.194;27.646;2023-01-31T13:10:02;101173.19;;;11.38;100.00
6028;BME280;3042;43.194;27.646;2023-01-31T13:12:34;101110.59;;;10.92;100.00
6028;BME280;3042;43.194;27.646;2023-01-31T13:15:05;101290.97;;;12.02;100.00
6028;BME280;3042;43.194;27.646;2023-01-31T13:17:36;101166.28;;;11.21;100.00
6028;BME280;3042;43.194;27.646;2023-01-31T13:20:18;101255.59;;;12.02;100.00
6028;BME280;3042;43.194;27.646;2023-01-31T13:22:49;101153.44;;;10.87;100.00